createdAt,value
2022-09-26T00:01:43.690Z,4.73
2022-09-26T00:04:24.612Z,5.57
2022-09-26T00:06:56.283Z,6.40
2022-09-26T00:09:26.550Z,5.93
2022-09-26T00:11:54.610Z,5.43
2022-09-26T00:14:26.623Z,4.33
2022-09-26T00:16:55.811Z,6.87
2022-09-26T00:19:24.675Z,4.77
2022-09-26T00:21:53.661Z,4.33
2022-09-26T00:24:22.661Z,5.03
2022-09-26T00:26:50.694Z,6.70
2022-09-26T00:29:20.465Z,5.67
2022-09-26T00:31:50.477Z,4.57
2022-09-26T00:34:20.790Z,4.77
2022-09-26T00:36:50.534Z,5.63
2022-09-26T00:39:19.092Z,7.03
2022-09-26T00:41:47.591Z,4.60
2022-09-26T00:44:36.601Z,5.17
2022-09-26T00:47:06.888Z,6.40
2022-09-26T00:49:38.686Z,6.80
2022-09-26T00:52:11.970Z,6.13
2022-09-26T00:54:46.239Z,5.43
2022-09-26T00:57:23.743Z,7.00
2022-09-26T00:59:58.030Z,5.30
2022-09-26T01:02:28.990Z,9.27
2022-09-26T01:05:00.335Z,4.43
2022-09-26T01:07:29.856Z,4.57
2022-09-26T01:10:00.059Z,5.77
2022-09-26T01:12:29.877Z,6.23
2022-09-26T01:14:59.885Z,4.80
2022-09-26T01:17:28.975Z,5.83
2022-09-26T01:19:57.273Z,6.97
2022-09-26T01:23:03.970Z,4.17
2022-09-26T01:26:09.011Z,5.83
2022-09-26T01:29:03.879Z,9.10
2022-09-26T01:32:28.074Z,6.40
2022-09-26T01:35:01.133Z,6.93
2022-09-26T01:37:38.396Z,6.97
2022-09-26T01:40:16.417Z,9.77
2022-09-26T01:43:21.062Z,5.87
2022-09-26T01:45:52.490Z,7.17
2022-09-26T01:48:26.221Z,7.80
2022-09-26T01:50:58.174Z,10.80
2022-09-26T01:53:51.159Z,6.67
2022-09-26T01:56:26.382Z,9.37
2022-09-26T01:59:11.390Z,5.23
2022-09-26T02:01:44.271Z,10.00
2022-09-26T02:04:19.334Z,9.30
2022-09-26T02:06:56.369Z,12.03
2022-09-26T02:09:31.653Z,7.43
2022-09-26T02:12:02.504Z,8.73
2022-09-26T02:14:39.479Z,6.57
2022-09-26T02:17:35.518Z,9.40
2022-09-26T02:20:11.514Z,7.23
2022-09-26T02:22:40.594Z,5.57
2022-09-26T02:25:09.888Z,7.00
2022-09-26T02:27:40.130Z,7.23
2022-09-26T02:30:13.507Z,7.80
2022-09-26T02:32:42.623Z,11.73
2022-09-26T02:35:30.144Z,5.57
2022-09-26T02:37:59.662Z,4.70
2022-09-26T02:40:41.002Z,5.30
2022-09-26T02:43:55.788Z,7.47
2022-09-26T02:46:51.757Z,8.43
2022-09-26T02:49:53.971Z,9.83
2022-09-26T02:52:28.829Z,6.17
2022-09-26T02:55:16.858Z,8.60
2022-09-26T02:58:07.375Z,11.57
2022-09-26T03:01:11.905Z,10.30
2022-09-26T03:04:00.955Z,8.47
2022-09-26T03:06:44.931Z,8.07
2022-09-26T03:09:16.929Z,12.07
2022-09-26T03:11:45.997Z,10.57
2022-09-26T03:14:15.019Z,8.27
2022-09-26T03:16:46.041Z,8.83
2022-09-26T03:19:28.064Z,9.27
2022-09-26T03:21:58.274Z,8.80
2022-09-26T03:24:29.082Z,12.03
2022-09-26T03:27:01.028Z,8.57
2022-09-26T03:29:30.130Z,9.90
2022-09-26T03:32:01.238Z,7.53
2022-09-26T03:34:30.173Z,8.33
2022-09-26T03:36:59.199Z,7.23
2022-09-26T03:39:28.218Z,9.13
2022-09-26T03:42:07.458Z,5.63
2022-09-26T03:44:36.246Z,7.00
2022-09-26T03:47:14.340Z,8.03
2022-09-26T03:49:46.682Z,5.13
2022-09-26T03:52:15.416Z,4.60
2022-09-26T03:54:46.388Z,3.90
2022-09-26T03:57:17.410Z,4.63
2022-09-26T03:59:51.441Z,6.83
2022-09-26T04:02:21.524Z,6.07
2022-09-26T04:04:59.718Z,3.40
2022-09-26T04:07:28.707Z,2.70
2022-09-26T04:09:59.490Z,5.67
2022-09-26T04:12:28.566Z,5.63
2022-09-26T04:14:56.908Z,5.43
2022-09-26T04:17:25.639Z,5.80
2022-09-26T04:19:55.850Z,5.53
2022-09-26T04:22:26.544Z,3.43
2022-09-26T04:24:55.016Z,7.73
2022-09-26T04:27:29.888Z,7.13
2022-09-26T04:29:59.524Z,2.77
2022-09-26T04:32:40.729Z,3.00
2022-09-26T04:35:32.803Z,4.37
2022-09-26T04:38:01.805Z,5.77
2022-09-26T04:40:32.422Z,7.07
2022-09-26T04:43:05.915Z,1.70
2022-09-26T04:45:34.902Z,5.83
2022-09-26T04:48:05.131Z,4.97
2022-09-26T04:50:44.926Z,5.63
2022-09-26T04:53:14.156Z,5.00
2022-09-26T04:56:02.250Z,5.43
2022-09-26T04:58:33.952Z,6.90
2022-09-26T05:01:06.389Z,6.73
2022-09-26T05:03:47.005Z,2.80
2022-09-26T05:06:17.279Z,8.47
2022-09-26T05:08:50.277Z,5.40
2022-09-26T05:11:25.403Z,7.17
2022-09-26T05:13:54.353Z,3.87
2022-09-26T05:16:29.248Z,5.00
2022-09-26T05:19:02.064Z,3.33
2022-09-26T05:21:30.525Z,8.43
2022-09-26T05:24:19.181Z,3.20
2022-09-26T05:26:51.211Z,4.33
2022-09-26T05:29:22.775Z,1.60
2022-09-26T05:32:00.335Z,7.23
2022-09-26T05:34:33.346Z,2.80
2022-09-26T05:37:03.580Z,4.73
2022-09-26T05:39:52.233Z,5.60
2022-09-26T05:42:21.399Z,9.17
2022-09-26T05:44:50.480Z,6.97
2022-09-26T05:47:19.411Z,5.87
2022-09-26T05:49:49.745Z,4.97
2022-09-26T05:52:24.567Z,5.47
2022-09-26T05:54:54.749Z,4.73
2022-09-26T05:57:50.505Z,10.17
2022-09-26T06:00:21.569Z,8.53
2022-09-26T06:02:59.552Z,5.63
2022-09-26T06:05:44.793Z,7.90
2022-09-26T06:08:18.599Z,5.33
2022-09-26T06:10:51.661Z,4.07
2022-09-26T06:13:21.921Z,4.67
2022-09-26T06:15:52.850Z,6.60
2022-09-26T06:18:22.080Z,6.77
2022-09-26T06:20:51.980Z,3.23
2022-09-26T06:23:21.621Z,4.57
2022-09-26T06:25:51.770Z,4.70
2022-09-26T06:28:20.190Z,3.40
2022-09-26T06:30:49.176Z,5.87
2022-09-26T06:33:35.834Z,4.50
2022-09-26T06:36:29.248Z,5.87
2022-09-26T06:38:57.955Z,3.20
2022-09-26T06:41:30.947Z,3.70
2022-09-26T06:44:00.197Z,1.80
2022-09-26T06:46:47.047Z,5.33
2022-09-26T06:49:20.280Z,2.70
2022-09-26T06:52:12.047Z,10.83
2022-09-26T06:54:41.065Z,4.63
2022-09-26T06:57:15.080Z,4.23
2022-09-26T06:59:45.225Z,2.30
2022-09-26T07:02:38.393Z,2.20
2022-09-26T07:05:23.421Z,5.23
2022-09-26T07:07:54.218Z,2.47
2022-09-26T07:10:31.243Z,5.80
2022-09-26T07:13:07.633Z,4.10
2022-09-26T07:15:38.290Z,3.77
2022-09-26T07:18:23.689Z,5.30
2022-09-26T07:21:18.362Z,5.90
2022-09-26T07:23:52.406Z,3.87
2022-09-26T07:26:22.383Z,9.57
2022-09-26T07:28:54.550Z,7.57
2022-09-26T07:31:27.734Z,4.33
2022-09-26T07:34:18.829Z,2.97
2022-09-26T07:36:47.819Z,5.07
2022-09-26T07:39:17.449Z,7.23
2022-09-26T07:41:47.556Z,3.70
2022-09-26T07:45:08.720Z,2.80
2022-09-26T07:47:24.573Z,10.93
2022-09-26T07:50:16.687Z,4.30
2022-09-26T07:53:13.885Z,4.27
2022-09-26T07:56:06.869Z,5.97
2022-09-26T07:59:00.589Z,4.90
2022-09-26T08:01:45.795Z,3.37
2022-09-26T08:04:35.801Z,5.80
2022-09-26T08:07:04.768Z,7.53
2022-09-26T08:09:38.696Z,4.13
2022-09-26T08:12:25.830Z,7.47
2022-09-26T08:15:06.878Z,9.00
2022-09-26T08:17:45.120Z,6.53
2022-09-26T08:20:14.101Z,2.07
2022-09-26T08:22:42.197Z,10.23
2022-09-26T08:25:13.317Z,8.23
2022-09-26T08:27:53.994Z,6.87
2022-09-26T08:30:26.018Z,6.77
2022-09-26T08:32:56.288Z,7.40
2022-09-26T08:35:26.550Z,3.97
2022-09-26T08:38:14.257Z,5.50
2022-09-26T08:40:49.185Z,9.00
2022-09-26T08:44:04.124Z,6.03
2022-09-26T08:47:05.395Z,5.90
2022-09-26T08:50:33.718Z,11.97
2022-09-26T08:53:11.287Z,8.30
2022-09-26T08:55:48.522Z,5.43
2022-09-26T08:58:25.325Z,4.27
2022-09-26T09:01:03.795Z,12.00
2022-09-26T09:03:53.343Z,5.40
2022-09-26T09:06:22.601Z,1.63
2022-09-26T09:08:53.328Z,6.53
2022-09-26T09:11:51.260Z,3.40
2022-09-26T09:14:31.671Z,3.53
2022-09-26T09:17:33.914Z,12.00
2022-09-26T09:20:45.838Z,4.40
2022-09-26T09:23:50.807Z,4.20
2022-09-26T09:29:21.519Z,1.93
2022-09-26T09:32:27.792Z,9.53
2022-09-26T09:35:18.543Z,8.00
2022-09-26T09:38:08.560Z,6.20
2022-09-26T09:40:47.652Z,4.23
2022-09-26T09:43:27.614Z,4.33
2022-09-26T09:46:04.686Z,7.83
2022-09-26T09:48:34.006Z,3.20
2022-09-26T09:51:19.902Z,10.03
2022-09-26T09:54:18.061Z,5.17
2022-09-26T09:57:10.734Z,5.30
2022-09-26T09:59:50.125Z,8.10
2022-09-26T10:02:22.831Z,5.43
2022-09-26T10:05:06.830Z,8.00
2022-09-26T10:07:35.891Z,7.73
2022-09-26T10:10:29.116Z,5.63
2022-09-26T10:13:31.957Z,5.90
2022-09-26T10:16:19.961Z,4.07
2022-09-26T10:19:07.970Z,5.53
2022-09-26T10:21:42.204Z,8.83
2022-09-26T10:24:28.028Z,4.37
2022-09-26T10:27:38.348Z,7.57
2022-09-26T10:30:26.325Z,4.77
2022-09-26T10:33:06.329Z,5.50
2022-09-26T10:36:32.225Z,1.97
2022-09-26T10:39:24.205Z,3.20
2022-09-26T10:42:00.184Z,4.37
2022-09-26T10:44:34.475Z,7.00
2022-09-26T10:47:29.258Z,6.43
2022-09-26T10:50:17.276Z,8.27
2022-09-26T10:53:09.323Z,4.57
2022-09-26T10:55:53.358Z,3.47
2022-09-26T10:58:24.392Z,7.27
2022-09-26T11:00:55.420Z,2.67
2022-09-26T11:03:36.684Z,4.90
2022-09-26T11:06:35.457Z,1.93
2022-09-26T11:09:24.699Z,4.33
2022-09-26T11:12:30.473Z,4.37
2022-09-26T11:15:11.502Z,3.40
2022-09-26T11:17:45.776Z,9.47
2022-09-26T11:20:18.807Z,8.63
2022-09-26T11:23:43.568Z,7.47
2022-09-26T11:26:31.129Z,4.80
2022-09-26T11:29:15.286Z,8.40
2022-09-26T11:32:30.673Z,6.93
2022-09-26T11:35:03.677Z,6.10
2022-09-26T11:37:51.699Z,7.13
2022-09-26T11:40:35.706Z,6.20
2022-09-26T11:43:14.996Z,2.33
2022-09-26T11:45:50.134Z,5.57
2022-09-26T11:48:55.937Z,4.53
2022-09-26T11:52:02.232Z,5.27
2022-09-26T11:54:37.357Z,4.33
2022-09-26T11:57:25.040Z,4.40
2022-09-26T12:00:25.045Z,3.07
2022-09-26T12:03:02.140Z,3.53
2022-09-26T12:06:00.904Z,6.03
2022-09-26T12:08:50.454Z,7.23
2022-09-26T12:11:45.908Z,3.87
2022-09-26T12:14:40.365Z,5.57
2022-09-26T12:17:44.464Z,3.90
2022-09-26T12:20:31.211Z,7.70
2022-09-26T12:23:08.747Z,7.23
2022-09-26T12:26:03.212Z,6.87
2022-09-26T12:28:52.180Z,2.17
2022-09-26T12:31:51.355Z,3.30
2022-09-26T12:34:38.780Z,4.90
2022-09-26T12:37:45.518Z,3.73
2022-09-26T12:40:55.358Z,3.73
2022-09-26T12:43:43.314Z,3.70
2022-09-26T12:46:59.378Z,4.20
2022-09-26T12:50:05.918Z,3.33
2022-09-26T12:52:55.481Z,3.43
2022-09-26T12:55:36.422Z,5.03
2022-09-26T12:58:29.701Z,1.60
2022-09-26T13:01:29.774Z,3.73
2022-09-26T13:04:12.563Z,3.00
2022-09-26T13:07:18.885Z,3.27
2022-09-26T13:10:07.092Z,1.77
2022-09-26T13:13:12.630Z,1.40
2022-09-26T13:16:20.939Z,2.67
2022-09-26T13:18:53.870Z,2.20
2022-09-26T13:22:04.922Z,3.00
2022-09-26T13:24:48.699Z,2.53
2022-09-26T13:27:37.946Z,2.13
2022-09-26T13:30:28.794Z,2.07
2022-09-26T13:33:10.036Z,1.63
2022-09-26T13:35:45.638Z,3.33
2022-09-26T13:38:41.699Z,5.00
2022-09-26T13:41:27.778Z,2.17
2022-09-26T13:44:06.050Z,1.87
2022-09-26T13:46:55.813Z,1.50
2022-09-26T13:49:31.887Z,5.03
2022-09-26T13:52:20.588Z,3.70
2022-09-26T13:55:04.041Z,3.80
2022-09-26T13:57:39.969Z,2.20
2022-09-26T14:00:31.915Z,3.93
2022-09-26T14:03:11.324Z,2.70
2022-09-26T14:05:50.297Z,2.17
2022-09-26T14:08:52.024Z,2.63
2022-09-26T14:11:30.409Z,2.30
2022-09-26T14:14:19.461Z,1.50
2022-09-26T14:17:02.241Z,2.70
2022-09-26T14:19:39.502Z,2.50
2022-09-26T14:22:32.182Z,1.27
2022-09-26T14:25:03.541Z,4.70
2022-09-26T14:27:45.530Z,4.97
2022-09-26T14:30:15.390Z,2.60
2022-09-26T14:32:49.617Z,3.17
2022-09-26T14:35:26.940Z,1.27
2022-09-26T14:38:03.306Z,2.67
2022-09-26T14:40:40.429Z,3.33
2022-09-26T14:43:18.761Z,2.73
2022-09-26T14:45:51.809Z,3.60
2022-09-26T14:48:38.893Z,1.77
2022-09-26T14:51:14.537Z,5.70
2022-09-26T14:53:49.785Z,2.60
2022-09-26T14:56:45.836Z,1.60
2022-09-26T14:59:18.196Z,2.73
2022-09-26T15:01:48.672Z,1.97
2022-09-26T15:04:21.651Z,2.27
2022-09-26T15:06:56.677Z,4.57
2022-09-26T15:09:27.932Z,1.50
2022-09-26T15:12:04.034Z,3.33
2022-09-26T15:14:44.050Z,1.30
2022-09-26T15:17:24.147Z,1.77
2022-09-26T15:19:56.821Z,2.10
2022-09-26T15:22:27.805Z,1.13
2022-09-26T15:25:17.794Z,0.90
2022-09-26T15:27:49.831Z,2.03
2022-09-26T15:30:21.875Z,2.77
2022-09-26T15:32:53.457Z,0.60
2022-09-26T15:35:22.937Z,1.67
2022-09-26T15:37:54.136Z,0.80
2022-09-26T15:40:27.005Z,1.27
2022-09-26T15:43:17.043Z,0.60
2022-09-26T15:46:12.982Z,0.80
2022-09-26T15:48:50.164Z,0.80
2022-09-26T15:51:41.102Z,1.27
2022-09-26T15:54:22.645Z,0.60
2022-09-26T15:56:54.173Z,1.50
2022-09-26T15:59:46.155Z,1.63
2022-09-26T16:02:30.343Z,1.50
2022-09-26T16:05:00.472Z,2.47
2022-09-26T16:07:34.268Z,2.00
2022-09-26T16:10:07.249Z,1.13
2022-09-26T16:12:42.559Z,1.13
2022-09-26T16:15:29.437Z,2.13
2022-09-26T16:18:00.360Z,1.07
2022-09-26T16:20:31.633Z,2.07
2022-09-26T16:23:05.231Z,4.97
2022-09-26T16:25:48.674Z,2.77
2022-09-26T16:28:19.460Z,2.17
2022-09-26T16:30:59.557Z,2.00
2022-09-26T16:33:31.496Z,2.33
2022-09-26T16:36:07.523Z,5.00
2022-09-26T16:39:10.625Z,2.50
2022-09-26T16:42:40.949Z,3.13
2022-09-26T16:45:16.061Z,2.07
2022-09-26T16:47:51.772Z,1.93
2022-09-26T16:50:35.820Z,2.07
2022-09-26T16:53:09.133Z,4.97
2022-09-26T16:55:37.858Z,3.03
2022-09-26T16:58:08.395Z,2.30
2022-09-26T17:00:56.894Z,5.53
2022-09-26T17:03:33.775Z,2.30
2022-09-26T17:06:04.185Z,5.83
2022-09-26T17:08:35.039Z,4.13
2022-09-26T17:11:08.283Z,8.17
2022-09-26T17:13:40.953Z,4.73
2022-09-26T17:16:13.061Z,5.30
2022-09-26T17:18:46.035Z,6.30
2022-09-26T17:21:19.053Z,5.10
2022-09-26T17:23:49.308Z,10.27
2022-09-26T17:29:38.027Z,6.00
2022-09-26T17:32:09.649Z,7.33
2022-09-26T17:34:37.733Z,11.33
2022-09-26T17:37:04.602Z,9.73
2022-09-26T17:39:31.987Z,14.30
2022-09-26T17:41:59.219Z,13.07
2022-09-26T17:44:26.396Z,11.57
2022-09-26T17:46:58.693Z,9.27
2022-09-26T17:49:37.326Z,10.23
2022-09-26T17:52:06.493Z,15.33
2022-09-26T17:54:42.644Z,11.80
2022-09-26T17:57:16.410Z,15.20
2022-09-26T17:59:43.209Z,10.70
2022-09-26T18:02:24.382Z,17.83
2022-09-26T18:04:54.935Z,15.10
2022-09-26T18:07:24.571Z,13.77
2022-09-26T18:09:52.412Z,16.43
2022-09-26T18:12:25.534Z,19.93
2022-09-26T18:14:52.446Z,15.67
2022-09-26T18:17:19.544Z,31.23
2022-09-26T18:19:46.997Z,17.37
2022-09-26T18:22:24.474Z,18.90
2022-09-26T18:24:51.783Z,21.80
2022-09-26T18:27:18.788Z,17.80
2022-09-26T18:29:48.877Z,17.03
2022-09-26T18:32:29.074Z,14.60
2022-09-26T18:34:58.550Z,25.97
2022-09-26T18:37:25.656Z,13.57
2022-09-26T18:39:55.702Z,15.57
2022-09-26T18:42:24.903Z,16.00
2022-09-26T18:47:43.014Z,17.87
2022-09-26T18:50:19.679Z,15.20
2022-09-26T18:52:46.978Z,18.30
2022-09-26T18:55:41.048Z,14.23
2022-09-26T18:58:25.430Z,16.30
2022-09-26T19:01:13.334Z,16.53
2022-09-26T19:03:42.417Z,15.53
2022-09-26T19:06:12.627Z,14.70
2022-09-26T19:08:42.962Z,14.77
2022-09-26T19:11:18.012Z,13.23
2022-09-26T19:13:56.498Z,11.47
2022-09-26T19:16:24.581Z,12.20
2022-09-26T19:18:52.387Z,14.47
2022-09-26T19:21:35.532Z,16.27
2022-09-26T19:24:20.731Z,16.93
2022-09-26T19:26:53.859Z,13.10
2022-09-26T19:29:27.867Z,10.83
2022-09-26T19:31:55.048Z,13.53
2022-09-26T19:34:22.358Z,17.40
2022-09-26T19:36:52.489Z,16.87
2022-09-26T19:39:20.988Z,13.63
2022-09-26T19:41:47.815Z,12.67
2022-09-26T19:50:18.018Z,14.50
2022-09-26T19:52:44.940Z,9.17
2022-09-26T19:55:17.334Z,9.50
2022-09-26T19:57:44.170Z,10.93
2022-09-26T20:00:12.333Z,6.20
2022-09-26T20:02:39.310Z,9.17
2022-09-26T20:05:23.953Z,8.20
2022-09-26T20:07:51.574Z,5.03
2022-09-26T20:10:21.729Z,8.40
2022-09-26T20:12:48.732Z,6.90
2022-09-26T20:15:16.733Z,3.93
2022-09-26T20:17:44.840Z,4.80
2022-09-26T20:20:22.884Z,4.13
2022-09-26T20:22:51.510Z,2.33
2022-09-26T20:25:29.902Z,3.07
2022-09-26T20:27:57.730Z,3.67
2022-09-26T20:30:43.632Z,3.63
2022-09-26T20:33:13.671Z,5.67
2022-09-26T20:35:45.005Z,10.23
2022-09-26T20:38:38.603Z,3.80
2022-09-26T20:41:13.315Z,6.00
2022-09-26T20:43:41.817Z,4.53
2022-09-26T20:46:09.504Z,5.23
2022-09-26T20:48:37.635Z,7.77
2022-09-26T20:51:05.826Z,6.40
2022-09-26T20:53:32.756Z,4.97
2022-09-26T20:55:59.981Z,3.53
2022-09-26T20:58:27.120Z,5.70
2022-09-26T21:00:53.954Z,7.97
2022-09-26T21:03:25.232Z,5.47
2022-09-26T21:05:52.317Z,5.43
2022-09-26T21:08:27.452Z,6.40
2022-09-26T21:10:56.232Z,3.80
2022-09-26T21:13:23.775Z,6.93
2022-09-26T21:15:51.703Z,2.90
2022-09-26T21:18:24.257Z,4.97
2022-09-26T21:20:52.076Z,4.80
2022-09-26T21:23:22.515Z,4.47
2022-09-26T21:25:49.410Z,2.70
2022-09-26T21:28:22.498Z,5.23
2022-09-26T21:30:49.785Z,5.10
2022-09-26T21:33:16.555Z,6.50
2022-09-26T21:35:43.316Z,3.30
2022-09-26T21:38:10.373Z,1.43
2022-09-26T21:40:39.349Z,2.57
2022-09-26T21:43:11.691Z,1.33
2022-09-26T21:45:39.104Z,3.00
2022-09-26T21:48:05.967Z,8.40
2022-09-26T21:50:32.746Z,3.57
2022-09-26T21:53:03.250Z,2.63
2022-09-26T21:55:33.850Z,2.47
2022-09-26T21:58:03.698Z,2.80
2022-09-26T22:00:30.422Z,3.83
2022-09-26T22:03:01.116Z,3.37
2022-09-26T22:05:27.878Z,3.33
2022-09-26T22:07:55.890Z,1.40
2022-09-26T22:10:22.818Z,6.17
2022-09-26T22:12:56.524Z,2.77
2022-09-26T22:15:23.475Z,3.70
2022-09-26T22:17:50.158Z,6.03
2022-09-26T22:20:17.123Z,5.10
2022-09-26T22:22:43.991Z,6.87
2022-09-26T22:25:10.639Z,2.37
2022-09-26T22:27:37.950Z,6.93
2022-09-26T22:30:05.981Z,2.67
2022-09-26T22:32:32.678Z,2.90
2022-09-26T22:34:59.454Z,6.03
2022-09-26T22:37:26.197Z,3.67
2022-09-26T22:39:53.294Z,3.93
2022-09-26T22:42:20.039Z,1.33
2022-09-26T22:44:46.827Z,3.57
2022-09-26T22:47:13.462Z,4.13
2022-09-26T22:49:40.288Z,2.97
2022-09-26T22:52:06.995Z,3.93
2022-09-26T22:54:33.766Z,6.07
2022-09-26T22:57:00.460Z,3.80
2022-09-26T22:59:27.161Z,4.00
2022-09-26T23:01:58.413Z,5.63
2022-09-26T23:04:45.117Z,2.37
2022-09-26T23:07:11.846Z,3.00
2022-09-26T23:09:38.658Z,2.93
2022-09-26T23:12:05.501Z,4.63
2022-09-26T23:14:32.392Z,4.43
2022-09-26T23:16:59.123Z,3.37
2022-09-26T23:19:26.010Z,7.50
2022-09-26T23:21:52.725Z,2.27
2022-09-26T23:24:19.566Z,4.43
2022-09-26T23:26:46.455Z,2.87
2022-09-26T23:29:13.242Z,5.70
2022-09-26T23:31:40.041Z,4.10
2022-09-26T23:34:06.781Z,7.87
2022-09-26T23:36:33.566Z,5.97
2022-09-26T23:39:00.474Z,5.70
2022-09-26T23:41:27.331Z,7.77
2022-09-26T23:43:54.054Z,5.57
2022-09-26T23:46:20.862Z,3.73
2022-09-26T23:48:47.662Z,3.27
2022-09-26T23:51:14.401Z,4.10
2022-09-26T23:53:41.137Z,3.00
2022-09-26T23:56:12.260Z,1.23
2022-09-26T23:58:39.111Z,3.97
